Time;durP1;ratioP1;P1;durP2;ratioP2;P2;SDS_P1;SDS_P2;PMS_P1;PMS_P2;Temp;Humidity;BMP_temperature;BMP_pressure;BME280_temperature;BME280_humidity;BME280_pressure;Samples;Min_cycle;Max_cycle;Signal;HPM_P1;HPM_P2
2022/12/23 00:00:17;;;;;;;0.70;0.30;;;;;;;10.83;100.00;97752.56;4950262;28;20666;-62
2022/12/23 00:02:44;;;;;;;0.77;0.30;;;;;;;10.90;100.00;97740.44;4946919;28;20759;-62
2022/12/23 00:05:11;;;;;;;0.83;0.20;;;;;;;10.91;100.00;97744.69;4949710;28;20301;-62
2022/12/23 00:07:37;;;;;;;1.60;0.30;;;;;;;10.89;100.00;97730.16;4945809;28;20246;-63
2022/12/23 00:10:06;;;;;;;2.67;0.40;;;;;;;10.92;100.00;97741.09;4949472;28;20240;-63
2022/12/23 00:15:17;;;;;;;0.40;0.30;;;;;;;11.02;100.00;97713.91;4949204;28;20245;-63
2022/12/23 00:17:44;;;;;;;0.77;0.20;;;;;;;11.04;100.00;97725.00;4947048;28;20234;-63
2022/12/23 00:20:14;;;;;;;1.10;0.30;;;;;;;11.06;100.00;97728.25;4950828;28;20242;-63
2022/12/23 00:25:39;;;;;;;0.70;0.20;;;;;;;11.05;100.00;97724.81;4949908;28;20245;-63
2022/12/23 00:28:07;;;;;;;0.40;0.30;;;;;;;11.12;100.00;97747.63;4946890;28;20721;-63
2022/12/23 00:30:33;;;;;;;2.73;0.67;;;;;;;11.12;100.00;97713.66;4946259;28;20703;-63
2022/12/23 00:33:00;;;;;;;1.10;0.27;;;;;;;11.04;100.00;97725.81;4949879;28;20670;-63
2022/12/23 00:35:30;;;;;;;1.20;0.30;;;;;;;11.05;100.00;97732.66;4949392;28;20234;-63
2022/12/23 00:37:57;;;;;;;0.60;0.30;;;;;;;11.14;100.00;97730.75;4947666;28;20247;-63
2022/12/23 00:43:09;;;;;;;0.57;0.20;;;;;;;11.16;100.00;97735.81;4943247;28;20234;-63
2022/12/23 00:45:36;;;;;;;0.53;0.40;;;;;;;11.20;100.00;97732.69;4943994;28;20498;-63
2022/12/23 00:50:46;;;;;;;1.23;0.33;;;;;;;11.23;100.00;97750.59;4946016;28;20226;-63
2022/12/23 00:53:13;;;;;;;0.83;0.20;;;;;;;11.34;100.00;97756.41;4952082;28;20293;-63
2022/12/23 00:55:40;;;;;;;1.13;0.20;;;;;;;11.34;100.00;97752.00;4945336;28;20227;-63
2022/12/23 00:58:06;;;;;;;0.47;0.20;;;;;;;11.35;100.00;97768.47;4949141;28;20246;-63
2022/12/23 01:06:03;;;;;;;1.23;0.20;;;;;;;11.49;100.00;97770.31;4949017;28;20239;-63
2022/12/23 01:08:29;;;;;;;0.90;0.20;;;;;;;11.45;100.00;97774.25;4954247;28;20235;-62
2022/12/23 01:10:56;;;;;;;0.50;0.27;;;;;;;11.44;100.00;97772.63;4953844;28;20234;-63
2022/12/23 01:13:23;;;;;;;0.30;0.20;;;;;;;11.37;100.00;97777.78;4953422;28;20237;-63
2022/12/23 01:15:51;;;;;;;0.40;0.20;;;;;;;11.34;100.00;97780.75;4951324;28;20789;-63
2022/12/23 01:18:17;;;;;;;0.70;0.20;;;;;;;11.27;100.00;97779.00;4955298;28;20647;-62
2022/12/23 01:20:44;;;;;;;0.30;0.20;;;;;;;11.16;100.00;97780.22;4950026;28;20635;-63
2022/12/23 01:23:10;;;;;;;0.50;0.30;;;;;;;11.21;100.00;97783.13;4970517;28;20591;-63
2022/12/23 01:25:37;;;;;;;0.33;0.20;;;;;;;11.22;100.00;97782.13;4949780;28;20242;-64
2022/12/23 01:28:04;;;;;;;1.03;0.20;;;;;;;11.19;100.00;97787.72;4952973;28;20702;-64
2022/12/23 01:30:30;;;;;;;0.77;0.10;;;;;;;11.15;100.00;97795.06;4952886;28;20805;-64
2022/12/23 01:32:58;;;;;;;1.03;0.20;;;;;;;11.16;100.00;97788.06;4957473;28;20240;-64
2022/12/23 01:35:25;;;;;;;0.73;0.30;;;;;;;11.22;100.00;97797.81;4957142;28;20234;-64
2022/12/23 01:37:51;;;;;;;0.60;0.20;;;;;;;11.21;100.00;97804.03;4952684;28;20641;-64
2022/12/23 01:40:18;;;;;;;1.00;0.27;;;;;;;11.27;100.00;97798.09;4953270;28;20297;-64
2022/12/23 01:42:44;;;;;;;0.10;0.10;;;;;;;11.25;100.00;97813.13;4951985;28;20234;-64
2022/12/23 01:45:16;;;;;;;0.83;0.20;;;;;;;11.25;100.00;97834.03;4953443;28;20219;-64
2022/12/23 01:47:48;;;;;;;1.07;0.20;;;;;;;11.22;100.00;97835.19;4955778;28;20257;-64
2022/12/23 01:50:20;;;;;;;0.83;0.33;;;;;;;11.19;100.00;97821.69;4958624;28;20310;-64
2022/12/23 01:52:51;;;;;;;1.57;0.10;;;;;;;11.18;100.00;97826.06;4956958;28;20245;-64
2022/12/23 01:55:22;;;;;;;1.33;0.20;;;;;;;11.15;100.00;97838.69;4958819;28;20227;-64
2022/12/23 01:57:49;;;;;;;1.13;0.33;;;;;;;11.07;100.00;97850.81;4956758;28;20630;-64
2022/12/23 02:05:48;;;;;;;0.37;0.20;;;;;;;11.11;100.00;97879.19;4954329;28;20270;-64
2022/12/23 02:11:20;;;;;;;0.20;0.20;;;;;;;11.18;100.00;97869.69;4957336;28;20337;-64
2022/12/23 02:16:50;;;;;;;0.53;0.27;;;;;;;11.09;100.00;97868.94;4959063;28;20320;-64
2022/12/23 02:19:29;;;;;;;0.57;0.37;;;;;;;11.08;100.00;97869.91;4961210;28;20222;-64
2022/12/23 02:22:12;;;;;;;1.33;0.40;;;;;;;11.05;100.00;97876.28;4959286;28;20444;-64
2022/12/23 02:24:57;;;;;;;0.40;0.30;;;;;;;11.03;100.00;97887.91;4969760;28;20315;-63
2022/12/23 02:27:28;;;;;;;0.50;0.30;;;;;;;11.05;100.00;97893.75;4956268;28;20235;-63
2022/12/23 02:30:24;;;;;;;0.20;0.10;;;;;;;11.04;100.00;97885.09;4955524;28;20247;-63
2022/12/23 02:33:11;;;;;;;0.73;0.20;;;;;;;11.06;100.00;97893.59;4956655;28;20292;-63
2022/12/23 02:35:45;;;;;;;0.20;0.10;;;;;;;11.11;100.00;97884.41;4957604;28;20234;-63
2022/12/23 02:38:15;;;;;;;0.70;0.20;;;;;;;11.06;100.00;97893.59;4957638;28;20745;-63
2022/12/23 02:40:50;;;;;;;0.97;0.30;;;;;;;11.18;100.00;97904.44;4956025;28;20238;-63
2022/12/23 02:43:23;;;;;;;1.50;0.23;;;;;;;11.02;100.00;97899.34;4971700;28;20235;-63
2022/12/23 02:45:57;;;;;;;0.20;0.20;;;;;;;10.92;100.00;97907.34;4957411;28;20770;-63
2022/12/23 02:48:33;;;;;;;0.60;0.20;;;;;;;10.89;100.00;97892.88;4958087;28;20290;-63
2022/12/23 02:51:02;;;;;;;0.50;0.20;;;;;;;10.88;100.00;97904.28;4955584;28;20300;-63
2022/12/23 02:53:32;;;;;;;0.30;0.20;;;;;;;10.88;100.00;97914.72;4959788;28;20289;-63
2022/12/23 02:56:00;;;;;;;0.67;0.33;;;;;;;10.77;100.00;97915.91;4954522;28;20292;-63
2022/12/23 02:58:31;;;;;;;1.50;0.30;;;;;;;10.79;100.00;97931.41;4957241;28;20242;-63
2022/12/23 03:01:00;;;;;;;0.37;0.20;;;;;;;10.81;100.00;97923.41;4955021;28;20250;-63
2022/12/23 03:03:29;;;;;;;0.40;0.30;;;;;;;10.78;100.00;97920.16;4954493;28;20606;-63
2022/12/23 03:05:56;;;;;;;0.67;0.30;;;;;;;10.83;100.00;97922.25;4957559;28;20374;-63
2022/12/23 03:08:25;;;;;;;0.70;0.30;;;;;;;10.86;100.00;97932.38;4959418;28;20288;-63
2022/12/23 03:11:03;;;;;;;0.87;0.20;;;;;;;10.94;100.00;97952.41;4954730;28;20238;-63
2022/12/23 03:13:54;;;;;;;0.97;0.30;;;;;;;11.02;100.00;97943.72;4957850;28;20249;-63
2022/12/23 03:16:23;;;;;;;0.63;0.20;;;;;;;11.01;100.00;97969.00;4956238;28;20257;-63
2022/12/23 03:19:05;;;;;;;0.40;0.10;;;;;;;11.10;100.00;97963.75;4953809;28;20590;-63
2022/12/23 03:21:38;;;;;;;1.07;0.10;;;;;;;11.01;100.00;97982.06;4954156;28;20362;-63
2022/12/23 03:24:15;;;;;;;0.30;0.30;;;;;;;11.01;100.00;97963.78;4960225;28;20242;-63
2022/12/23 03:26:49;;;;;;;0.30;0.30;;;;;;;10.95;100.00;97968.88;4954517;28;20240;-64
2022/12/23 03:29:23;;;;;;;1.23;0.20;;;;;;;10.93;100.00;97966.44;4957842;28;21316;-63
2022/12/23 03:31:51;;;;;;;1.13;0.20;;;;;;;10.89;100.00;97965.13;4953607;28;20227;-63
2022/12/23 03:34:24;;;;;;;0.43;0.30;;;;;;;10.90;100.00;97970.22;4957568;28;20233;-63
2022/12/23 03:36:54;;;;;;;1.27;0.47;;;;;;;10.88;100.00;97979.19;4956663;28;20242;-63
2022/12/23 03:39:25;;;;;;;0.87;0.40;;;;;;;10.86;100.00;97979.34;4958709;28;20281;-63
2022/12/23 03:41:56;;;;;;;0.40;0.30;;;;;;;10.91;100.00;97991.91;4953238;28;20241;-63
2022/12/23 03:44:28;;;;;;;1.87;0.30;;;;;;;11.02;100.00;97986.31;4958400;28;20293;-63
2022/12/23 03:47:03;;;;;;;2.27;0.30;;;;;;;10.97;100.00;97977.38;4957914;28;20233;-63
2022/12/23 03:49:36;;;;;;;0.33;0.30;;;;;;;11.00;100.00;97969.19;4959958;28;20756;-63
2022/12/23 03:52:07;;;;;;;2.00;0.40;;;;;;;10.91;100.00;97973.63;4957249;28;20249;-63
2022/12/23 03:54:39;;;;;;;0.20;0.20;;;;;;;10.98;100.00;97968.56;4957076;28;20242;-63
2022/12/23 03:57:07;;;;;;;0.20;0.20;;;;;;;10.99;100.00;97975.41;4957855;28;20290;-63
2022/12/23 03:59:38;;;;;;;0.27;0.10;;;;;;;10.99;100.00;97978.00;4955715;28;20242;-62
2022/12/23 04:04:57;;;;;;;0.40;0.23;;;;;;;11.02;100.00;97983.69;5353419;23;20250;-62
2022/12/23 04:07:30;;;;;;;0.20;0.20;;;;;;;11.02;100.00;97967.22;4960928;28;20238;-62
2022/12/23 04:09:58;;;;;;;0.40;0.20;;;;;;;11.03;100.00;97972.28;4958114;28;20281;-61
2022/12/23 04:12:26;;;;;;;0.97;0.20;;;;;;;11.06;100.00;97966.72;4963469;28;20769;-63
2022/12/23 04:14:53;;;;;;;0.30;0.17;;;;;;;11.06;100.00;97976.34;4955660;28;20243;-62
2022/12/23 04:17:20;;;;;;;0.30;0.20;;;;;;;11.05;100.00;97979.94;4955039;28;20719;-62
2022/12/23 04:19:47;;;;;;;0.20;0.20;;;;;;;11.08;100.00;97982.22;4952493;28;20231;-62
2022/12/23 04:22:16;;;;;;;0.33;0.23;;;;;;;11.08;100.00;98003.13;4959587;28;20238;-62
2022/12/23 04:24:42;;;;;;;0.30;0.30;;;;;;;11.13;100.00;97998.16;4953165;28;20234;-62
2022/12/23 04:27:12;;;;;;;0.90;0.30;;;;;;;11.20;100.00;98006.16;4955035;28;20242;-62
2022/12/23 04:29:38;;;;;;;0.20;0.20;;;;;;;11.18;100.00;98005.50;4957491;28;20274;-62
2022/12/23 04:32:05;;;;;;;0.77;0.30;;;;;;;11.22;100.00;98006.81;5168961;23;20243;-62
2022/12/23 04:34:32;;;;;;;1.60;0.40;;;;;;;11.18;100.00;98003.69;4962350;28;20262;-62
2022/12/23 04:36:59;;;;;;;0.93;0.43;;;;;;;11.23;100.00;97995.38;4966868;28;20241;-62
2022/12/23 04:39:26;;;;;;;0.40;0.40;;;;;;;11.14;100.00;97989.34;4966846;28;20226;-62
2022/12/23 04:41:53;;;;;;;0.60;0.30;;;;;;;11.13;100.00;97992.16;4962728;28;20650;-62
2022/12/23 04:44:20;;;;;;;1.30;0.63;;;;;;;11.11;100.00;97986.28;4966708;28;20221;-61
2022/12/23 04:46:46;;;;;;;1.73;0.50;;;;;;;11.16;100.00;97983.97;4962689;28;20230;-61
2022/12/23 04:49:13;;;;;;;2.53;0.50;;;;;;;11.11;100.00;97989.72;4966660;28;20234;-62
2022/12/23 04:51:39;;;;;;;1.07;0.40;;;;;;;11.17;100.00;97996.03;4963432;28;20234;-61
2022/12/23 04:54:06;;;;;;;2.23;0.50;;;;;;;11.18;100.00;97988.03;4965319;28;20311;-62
2022/12/23 04:56:34;;;;;;;1.63;1.07;;;;;;;11.25;100.00;97972.50;4963741;28;20293;-62
2022/12/23 04:59:01;;;;;;;1.43;0.40;;;;;;;11.26;100.00;97975.91;4965909;28;20227;-62
2022/12/23 05:01:28;;;;;;;0.50;0.50;;;;;;;11.22;100.00;97985.91;4966700;28;20270;-62
2022/12/23 05:03:55;;;;;;;1.30;0.60;;;;;;;11.19;100.00;97981.03;4964135;28;20237;-62
2022/12/23 05:06:21;;;;;;;6.13;0.73;;;;;;;11.15;100.00;97979.72;4967189;28;20375;-62
2022/12/23 05:08:48;;;;;;;1.43;0.40;;;;;;;11.10;100.00;97968.97;4963863;28;20243;-62
2022/12/23 05:11:14;;;;;;;0.33;0.33;;;;;;;11.17;100.00;97960.28;4966307;28;20242;-62
2022/12/23 05:13:42;;;;;;;1.67;0.30;;;;;;;11.14;100.00;97965.84;4963222;28;20234;-62
2022/12/23 05:16:09;;;;;;;0.63;0.33;;;;;;;11.16;100.00;97963.88;4965920;28;20294;-62
2022/12/23 05:18:35;;;;;;;0.90;0.30;;;;;;;11.14;100.00;97962.44;4962895;28;20727;-62
2022/12/23 05:21:02;;;;;;;0.40;0.30;;;;;;;11.13;100.00;97969.44;4965811;28;20357;-62
2022/12/23 05:23:28;;;;;;;0.37;0.30;;;;;;;11.06;100.00;97973.75;4965510;28;20781;-62
2022/12/23 05:25:55;;;;;;;0.90;0.40;;;;;;;11.02;100.00;97982.91;4962430;28;20235;-62
2022/12/23 05:28:22;;;;;;;0.50;0.50;;;;;;;10.98;100.00;97968.56;4964698;28;20244;-61
2022/12/23 05:30:57;;;;;;;0.67;0.30;;;;;;;11.06;100.00;97985.00;4962911;28;20327;-62
2022/12/23 05:33:24;;;;;;;2.40;0.53;;;;;;;11.10;100.00;97990.69;4964643;28;20242;-62
2022/12/23 05:35:50;;;;;;;1.60;0.40;;;;;;;11.12;100.00;97990.50;4962412;28;20247;-62
2022/12/23 05:38:17;;;;;;;0.37;0.30;;;;;;;11.16;100.00;97992.59;4966073;28;20239;-62
2022/12/23 05:40:43;;;;;;;0.83;0.30;;;;;;;11.19;100.00;97992.25;4963078;28;20239;-62
2022/12/23 05:43:10;;;;;;;0.70;0.40;;;;;;;11.18;100.00;98000.28;4965991;28;20238;-62
2022/12/23 05:45:37;;;;;;;1.03;0.80;;;;;;;11.20;100.00;98003.53;4962841;28;20934;-62
2022/12/23 05:48:05;;;;;;;1.57;0.40;;;;;;;11.22;100.00;97994.53;4959707;28;20706;-61
2022/12/23 05:50:31;;;;;;;1.47;0.40;;;;;;;11.28;100.00;97984.38;4962857;28;20262;-62
2022/12/23 05:53:02;;;;;;;0.90;0.60;;;;;;;11.28;100.00;97997.44;4965539;28;20595;-62
2022/12/23 05:55:29;;;;;;;2.27;0.70;;;;;;;11.23;100.00;97987.53;4966110;28;20242;-61
2022/12/23 05:57:55;;;;;;;0.87;0.50;;;;;;;11.27;100.00;98001.88;4962240;28;20277;-61
2022/12/23 06:00:22;;;;;;;1.47;0.80;;;;;;;11.20;100.00;97993.09;4965805;28;20269;-62
2022/12/23 06:02:48;;;;;;;5.93;2.83;;;;;;;11.18;100.00;98003.69;4963013;28;20830;-62
2022/12/23 06:05:16;;;;;;;0.97;0.60;;;;;;;11.14;100.00;97991.97;4965888;28;20293;-61
2022/12/23 06:07:43;;;;;;;17.93;13.47;;;;;;;11.12;100.00;97993.97;4961897;28;20234;-62
2022/12/23 06:10:11;;;;;;;4.93;3.53;;;;;;;11.12;100.00;97995.75;4965797;28;20626;-62
2022/12/23 06:12:38;;;;;;;1.17;0.80;;;;;;;11.11;100.00;97984.50;4962829;28;20227;-62
2022/12/23 06:15:05;;;;;;;2.20;0.90;;;;;;;11.12;100.00;97985.28;4965718;28;20692;-62
2022/12/23 06:17:32;;;;;;;0.70;0.60;;;;;;;11.13;100.00;97979.09;4962965;28;20231;-62
2022/12/23 06:19:59;;;;;;;2.23;0.80;;;;;;;11.12;100.00;97972.22;4965880;28;20234;-61
2022/12/23 06:22:27;;;;;;;0.67;0.57;;;;;;;11.14;100.00;97968.44;4965200;28;20294;-62
2022/12/23 06:24:53;;;;;;;0.60;0.60;;;;;;;11.12;100.00;97973.06;4962819;28;20235;-62
2022/12/23 06:27:20;;;;;;;0.33;0.33;;;;;;;11.14;100.00;97973.69;4965568;28;20235;-60
2022/12/23 06:29:46;;;;;;;0.70;0.70;;;;;;;11.16;100.00;97978.75;4962715;28;20236;-61
2022/12/23 06:32:13;;;;;;;0.83;0.80;;;;;;;11.19;100.00;97979.19;4965290;28;20747;-62
2022/12/23 06:34:39;;;;;;;1.87;0.70;;;;;;;11.23;100.00;97983.09;4962815;28;20242;-62
2022/12/23 06:37:06;;;;;;;0.70;0.40;;;;;;;11.20;100.00;97975.59;4969365;28;20235;-61
2022/12/23 06:39:34;;;;;;;0.80;0.50;;;;;;;11.25;100.00;97977.72;4965479;28;20230;-61
2022/12/23 06:42:00;;;;;;;0.40;0.40;;;;;;;11.22;100.00;97994.53;4969026;28;20660;-62
2022/12/23 06:44:27;;;;;;;0.30;0.30;;;;;;;11.20;100.00;98006.16;4968562;28;20633;-61
2022/12/23 06:46:54;;;;;;;1.97;0.40;;;;;;;11.19;100.00;97999.31;4957352;28;20324;-61
2022/12/23 06:49:20;;;;;;;0.30;0.30;;;;;;;11.14;100.00;98012.06;4969276;28;20224;-62
2022/12/23 06:51:47;;;;;;;0.40;0.30;;;;;;;11.13;100.00;98008.63;4963132;28;20285;-62
2022/12/23 06:54:13;;;;;;;0.40;0.40;;;;;;;11.15;100.00;98021.53;4967929;28;20231;-62
2022/12/23 06:56:41;;;;;;;1.70;0.40;;;;;;;11.13;100.00;98029.50;4965666;28;20710;-62
2022/12/23 06:59:08;;;;;;;0.30;0.30;;;;;;;11.08;100.00;98027.41;4968514;28;20399;-61
2022/12/23 07:01:34;;;;;;;0.20;0.20;;;;;;;11.10;100.00;98031.66;4964538;28;20927;-62
2022/12/23 07:04:01;;;;;;;0.43;0.23;;;;;;;11.08;100.00;98022.19;4968427;28;20238;-62
2022/12/23 07:06:28;;;;;;;0.60;0.50;;;;;;;11.07;100.00;98017.16;4968518;28;20270;-62
2022/12/23 07:08:55;;;;;;;1.10;1.10;;;;;;;11.10;100.00;98016.81;4966552;28;20234;-62
2022/12/23 07:11:21;;;;;;;0.50;0.50;;;;;;;11.12;100.00;98011.41;4968657;28;20243;-61
2022/12/23 07:13:49;;;;;;;0.30;0.30;;;;;;;11.08;100.00;98018.78;4965092;28;20282;-62
2022/12/23 07:16:16;;;;;;;0.30;0.30;;;;;;;11.07;100.00;98020.56;4968625;28;20285;-62
2022/12/23 07:18:42;;;;;;;0.30;0.23;;;;;;;11.07;100.00;98035.44;4965439;28;20259;-62
2022/12/23 07:21:09;;;;;;;0.67;0.60;;;;;;;11.05;100.00;98032.19;4967861;28;20236;-62
2022/12/23 07:23:35;;;;;;;0.50;0.33;;;;;;;11.03;100.00;98036.75;4964310;28;20225;-62
2022/12/23 07:26:02;;;;;;;1.13;0.60;;;;;;;11.00;100.00;98045.72;4967927;28;20284;-62
2022/12/23 07:28:29;;;;;;;0.33;0.33;;;;;;;11.01;100.00;98044.75;4968206;28;20262;-62
2022/12/23 07:30:56;;;;;;;3.80;0.53;;;;;;;11.03;100.00;98048.00;4965024;28;20231;-62
2022/12/23 07:33:23;;;;;;;0.30;0.30;;;;;;;11.04;100.00;98041.78;4967778;28;20243;-62
2022/12/23 07:35:49;;;;;;;0.73;0.50;;;;;;;11.06;100.00;98052.09;4964408;28;20286;-62
2022/12/23 07:38:16;;;;;;;1.50;1.10;;;;;;;11.07;100.00;98045.88;4967413;28;20223;-62
2022/12/23 07:40:43;;;;;;;8.40;7.40;;;;;;;11.12;100.00;98034.91;4965050;28;20286;-62
2022/12/23 07:43:10;;;;;;;9.50;8.50;;;;;;;11.11;100.00;98038.50;4968099;28;20230;-62
2022/12/23 07:45:36;;;;;;;6.43;4.87;;;;;;;11.09;100.00;98049.16;4965058;28;20696;-62
2022/12/23 07:48:05;;;;;;;0.10;0.10;;;;;;;11.15;100.00;98045.03;4969042;28;20744;-62
2022/12/23 07:50:31;;;;;;;1.93;1.83;;;;;;;11.15;100.00;98039.81;4965296;28;20583;-62
2022/12/23 07:52:58;;;;;;;0.40;0.40;;;;;;;11.14;100.00;98051.25;4967483;28;20757;-62
2022/12/23 07:55:24;;;;;;;0.10;0.10;;;;;;;11.16;100.00;98049.28;4967717;28;20698;-62
2022/12/23 07:57:52;;;;;;;0.83;0.83;;;;;;;11.15;100.00;98056.28;4965032;28;20250;-62
2022/12/23 08:00:20;;;;;;;0.10;0.10;;;;;;;11.16;100.00;98057.09;4967225;28;20300;-62
2022/12/23 08:02:47;;;;;;;0.50;0.50;;;;;;;11.15;100.00;98051.06;4964085;28;20249;-62
2022/12/23 08:05:16;;;;;;;0.13;0.13;;;;;;;11.16;100.00;98052.69;4965747;28;20239;-62
2022/12/23 08:07:43;;;;;;;1.10;1.00;;;;;;;11.20;100.00;98053.97;4963910;28;20234;-62
2022/12/23 08:10:11;;;;;;;0.13;0.13;;;;;;;11.26;100.00;98057.72;4967637;28;20267;-62
2022/12/23 08:12:38;;;;;;;0.40;0.20;;;;;;;11.33;100.00;98065.69;4964775;28;20242;-62
2022/12/23 08:15:06;;;;;;;1.00;0.60;;;;;;;11.35;100.00;98059.31;4967097;28;20281;-62
2022/12/23 08:17:32;;;;;;;0.40;0.40;;;;;;;11.32;100.00;98051.81;4964569;28;20243;-62
2022/12/23 08:19:59;;;;;;;0.50;0.50;;;;;;;11.32;100.00;98059.66;4965762;28;20590;-62
2022/12/23 08:22:27;;;;;;;0.20;0.20;;;;;;;11.27;100.00;98054.13;4967144;28;20317;-62
2022/12/23 08:24:53;;;;;;;0.10;0.10;;;;;;;11.29;100.00;98049.56;4962591;28;20242;-62
2022/12/23 08:27:20;;;;;;;0.93;0.60;;;;;;;11.29;100.00;98028.66;4966919;28;20234;-62
2022/12/23 08:29:46;;;;;;;0.30;0.30;;;;;;;11.33;100.00;98032.56;4963718;28;20286;-62
2022/12/23 08:32:13;;;;;;;0.67;0.20;;;;;;;11.26;100.00;98030.78;4966348;28;20305;-62
2022/12/23 08:34:40;;;;;;;0.90;0.80;;;;;;;11.21;100.00;98010.41;4945539;28;20302;-60
2022/12/23 08:37:07;;;;;;;0.87;0.63;;;;;;;11.25;100.00;98009.06;4966755;28;20227;-62
2022/12/23 08:39:35;;;;;;;0.30;0.30;;;;;;;11.32;100.00;98015.25;4963348;28;20694;-62
2022/12/23 08:42:02;;;;;;;1.10;1.00;;;;;;;11.25;100.00;98021.31;4966308;28;20670;-62
2022/12/23 08:44:29;;;;;;;0.80;0.80;;;;;;;11.27;100.00;98038.47;4966498;28;20242;-62
2022/12/23 08:46:56;;;;;;;0.70;0.60;;;;;;;11.27;100.00;98021.94;4964347;28;20247;-62
2022/12/23 08:49:23;;;;;;;1.00;0.80;;;;;;;11.27;100.00;98035.00;4966883;28;20288;-62
2022/12/23 08:51:49;;;;;;;1.47;0.80;;;;;;;11.28;100.00;98044.47;4963709;28;20238;-62
2022/12/23 08:54:19;;;;;;;0.73;0.73;;;;;;;11.21;100.00;98045.16;4966912;28;20227;-62
2022/12/23 08:56:46;;;;;;;1.67;1.10;;;;;;;11.21;100.00;98050.38;4963695;28;20228;-62
2022/12/23 08:59:15;;;;;;;1.53;1.20;;;;;;;11.21;100.00;98046.97;4964614;28;20293;-62
2022/12/23 09:01:41;;;;;;;3.73;1.83;;;;;;;11.21;100.00;98039.13;4963564;28;20230;-62
2022/12/23 09:04:08;;;;;;;2.00;1.50;;;;;;;11.24;100.00;98033.56;4966031;28;20226;-62
2022/12/23 09:06:37;;;;;;;2.63;0.70;;;;;;;11.26;100.00;98028.16;4962798;28;20272;-62
2022/12/23 09:09:05;;;;;;;1.67;1.57;;;;;;;11.28;100.00;98024.41;4966462;28;20239;-62
2022/12/23 09:11:31;;;;;;;3.27;1.43;;;;;;;11.32;100.00;98017.88;4962165;28;20451;-62
2022/12/23 09:14:00;;;;;;;4.70;4.20;;;;;;;11.41;100.00;98004.75;4965750;28;20553;-62
2022/12/23 09:16:27;;;;;;;1.20;0.80;;;;;;;11.52;100.00;97986.88;4965776;28;20277;-62
2022/12/23 09:18:54;;;;;;;2.10;0.80;;;;;;;11.61;100.00;97989.44;4963030;28;20249;-62
2022/12/23 09:21:23;;;;;;;3.30;1.47;;;;;;;11.71;100.00;97976.13;4966022;28;20225;-62
2022/12/23 09:23:49;;;;;;;3.40;3.10;;;;;;;11.73;100.00;97979.38;4962199;28;20226;-62
2022/12/23 09:26:22;;;;;;;1.63;0.60;;;;;;;11.78;100.00;97975.28;4965845;28;20239;-62
2022/12/23 09:28:48;;;;;;;1.13;0.50;;;;;;;11.87;100.00;97976.00;4962806;28;20590;-61
2022/12/23 09:31:17;;;;;;;0.90;0.40;;;;;;;11.91;100.00;97974.69;4964998;28;20238;-61
2022/12/23 09:33:46;;;;;;;2.60;0.80;;;;;;;12.00;100.00;97993.78;4961630;28;20282;-61
2022/12/23 09:36:13;;;;;;;1.00;0.70;;;;;;;12.07;100.00;97984.25;4964644;28;20231;-62
2022/12/23 09:38:40;;;;;;;3.10;1.37;;;;;;;12.15;100.00;97983.34;4962173;28;20222;-62
2022/12/23 09:41:20;;;;;;;1.90;1.50;;;;;;;12.20;100.00;97983.63;4964396;28;20294;-62
2022/12/23 09:44:00;;;;;;;0.97;0.53;;;;;;;12.35;100.00;97978.41;4960508;28;20220;-62
2022/12/23 09:46:33;;;;;;;1.90;0.40;;;;;;;12.31;100.00;97979.75;4964869;28;20276;-62
2022/12/23 09:49:04;;;;;;;1.27;0.60;;;;;;;12.30;100.00;97986.00;4963049;28;20234;-62
2022/12/23 09:51:33;;;;;;;3.03;1.30;;;;;;;12.35;100.00;97975.00;4962769;28;20594;-62
2022/12/23 09:54:05;;;;;;;0.87;0.30;;;;;;;12.33;100.00;97976.97;4964792;28;20600;-62
2022/12/23 09:56:42;;;;;;;0.80;0.80;;;;;;;12.37;100.00;97976.44;4962162;28;20215;-62
2022/12/23 09:59:19;;;;;;;0.97;0.50;;;;;;;12.30;100.00;97986.00;4965524;28;20269;-62
2022/12/23 10:01:55;;;;;;;2.70;0.93;;;;;;;12.27;100.00;97980.31;4961982;28;20227;-62
2022/12/23 10:04:36;;;;;;;2.50;0.93;;;;;;;12.37;100.00;97976.44;4963818;28;20216;-62
2022/12/23 10:07:17;;;;;;;0.60;0.60;;;;;;;12.35;100.00;97978.41;4962086;28;20242;-61
2022/12/23 10:09:48;;;;;;;3.03;1.73;;;;;;;12.34;100.00;97978.59;4964738;28;20232;-62
2022/12/23 10:12:20;;;;;;;1.47;1.30;;;;;;;12.36;100.00;97982.66;4966899;28;20746;-62
2022/12/23 10:14:50;;;;;;;1.43;1.23;;;;;;;12.39;100.00;97984.13;4964438;28;20691;-62
2022/12/23 10:17:26;;;;;;;0.80;0.30;;;;;;;12.17;100.00;97970.91;4968189;28;20224;-61
2022/12/23 10:19:56;;;;;;;0.70;0.40;;;;;;;12.27;100.00;97980.31;4965082;28;20266;-61
2022/12/23 10:22:26;;;;;;;1.00;0.50;;;;;;;12.17;100.00;97983.19;4967945;28;20450;-62
2022/12/23 10:24:55;;;;;;;1.93;0.43;;;;;;;12.14;100.00;97966.03;4965933;28;20244;-61
2022/12/23 10:27:27;;;;;;;0.87;0.30;;;;;;;12.27;100.00;97951.53;4969166;28;20234;-62
2022/12/23 10:29:53;;;;;;;1.20;1.00;;;;;;;12.21;100.00;97950.41;4966238;28;20230;-62
2022/12/23 10:32:28;;;;;;;0.50;0.50;;;;;;;12.18;100.00;97941.13;4985044;23;20230;-54
2022/12/23 10:35:04;;;;;;;0.70;0.43;;;;;;;12.24;100.00;97940.44;4969821;28;20635;-59
2022/12/23 10:37:38;;;;;;;0.20;0.13;;;;;;;12.20;100.00;97940.94;4971483;28;20226;-53
2022/12/23 10:40:15;;;;;;;0.70;0.20;;;;;;;12.15;100.00;97932.84;4965970;28;20634;-54
2022/12/23 10:42:50;;;;;;;0.40;0.23;;;;;;;12.23;100.00;97944.03;4966174;28;20228;-52
2022/12/23 10:45:34;;;;;;;0.40;0.20;;;;;;;12.19;100.00;97934.13;4970433;28;20231;-54
2022/12/23 10:48:15;;;;;;;0.20;0.20;;;;;;;12.19;100.00;97928.88;4968687;28;20239;-54
2022/12/23 10:50:53;;;;;;;2.40;0.20;;;;;;;12.20;100.00;97927.84;4971353;28;20221;-54
2022/12/23 10:53:31;;;;;;;0.70;0.30;;;;;;;12.24;100.00;97935.19;4971025;28;20285;-54
2022/12/23 10:55:58;;;;;;;0.50;0.20;;;;;;;12.30;100.00;97932.84;4964125;28;20229;-53
2022/12/23 10:58:26;;;;;;;0.47;0.20;;;;;;;12.32;100.00;97931.66;4968856;28;20223;-55
2022/12/23 11:00:55;;;;;;;0.17;0.10;;;;;;;12.26;100.00;97929.75;4967795;28;20248;-54
2022/12/23 11:03:28;;;;;;;4.70;3.50;;;;;;;12.25;100.00;97921.13;4963013;28;20232;-52
2022/12/23 11:05:56;;;;;;;0.20;0.20;;;;;;;12.30;100.00;97910.09;4961010;28;20238;-55
2022/12/23 11:08:25;;;;;;;4.03;1.90;;;;;;;12.29;100.00;97907.69;4964221;28;20239;-54
2022/12/23 11:10:52;;;;;;;37.27;28.33;;;;;;;12.31;100.00;97903.88;4972643;28;21443;-55
2022/12/23 11:13:34;;;;;;;1.40;1.27;;;;;;;12.36;100.00;97896.28;4970655;28;20293;-56
2022/12/23 11:16:16;;;;;;;0.37;0.30;;;;;;;12.42;100.00;97902.63;4965460;28;20228;-55
2022/12/23 11:18:57;;;;;;;0.40;0.27;;;;;;;12.35;100.00;97899.13;4976744;28;20226;-54
2022/12/23 11:21:24;;;;;;;0.60;0.30;;;;;;;12.33;100.00;97880.16;4967534;28;20577;-55
2022/12/23 11:24:07;;;;;;;0.33;0.30;;;;;;;12.36;100.00;97877.19;4964126;28;20231;-53
2022/12/23 11:26:35;;;;;;;0.93;0.30;;;;;;;12.40;100.00;97866.16;4966174;28;20835;-54
2022/12/23 11:29:06;;;;;;;0.80;0.30;;;;;;;12.45;100.00;97862.19;4965833;28;20939;-55
2022/12/23 11:31:35;;;;;;;1.23;0.40;;;;;;;12.52;100.00;97853.44;4960606;28;20253;-55
2022/12/23 11:34:07;;;;;;;1.43;0.40;;;;;;;12.49;100.00;97852.97;4974334;28;20235;-55
2022/12/23 11:36:34;;;;;;;0.80;0.43;;;;;;;12.55;100.00;97850.47;4964905;28;20281;-56
2022/12/23 11:39:06;;;;;;;1.57;0.40;;;;;;;12.58;100.00;97846.66;4965643;28;20235;-56
2022/12/23 11:41:37;;;;;;;0.60;0.60;;;;;;;12.62;100.00;97852.34;4967095;28;20238;-54
2022/12/23 11:44:06;;;;;;;1.50;0.50;;;;;;;12.59;100.00;97853.50;4971828;28;20698;-54
2022/12/23 11:46:34;;;;;;;1.43;0.50;;;;;;;12.57;100.00;97844.22;4967651;28;20971;-53
2022/12/23 11:49:17;;;;;;;2.30;0.50;;;;;;;12.57;100.00;97837.16;4969168;28;20687;-53
2022/12/23 11:51:46;;;;;;;0.67;0.40;;;;;;;12.56;100.00;97838.16;4964705;28;20690;-54
2022/12/23 11:54:18;;;;;;;1.30;0.60;;;;;;;12.58;100.00;97838.00;4970725;28;20227;-55
2022/12/23 11:56:50;;;;;;;0.40;0.40;;;;;;;12.55;100.00;97841.78;4966302;28;20763;-56
2022/12/23 11:59:28;;;;;;;1.70;1.03;;;;;;;12.49;100.00;97816.34;4971244;28;20240;-55
2022/12/23 12:01:58;;;;;;;2.63;0.70;;;;;;;12.49;100.00;97805.84;4962537;28;20231;-55
2022/12/23 12:04:30;;;;;;;0.63;0.50;;;;;;;12.49;100.00;97798.84;4968021;28;20289;-55